createdAt,value
2018-12-31T00:02:07.943Z,70.80
2018-12-31T00:04:36.339Z,70.00
2018-12-31T00:07:04.830Z,69.70
2018-12-31T00:09:33.303Z,70.00
2018-12-31T00:12:01.748Z,69.90
2018-12-31T00:14:30.148Z,70.20
2018-12-31T00:16:58.565Z,70.60
2018-12-31T00:19:26.990Z,70.30
2018-12-31T00:21:55.395Z,70.40
2018-12-31T00:24:23.802Z,70.30
2018-12-31T00:26:52.250Z,70.40
2018-12-31T00:29:20.633Z,70.10
2018-12-31T00:31:49.082Z,70.40
2018-12-31T00:34:17.510Z,70.50
2018-12-31T00:36:45.962Z,70.20
2018-12-31T00:39:14.365Z,70.30
2018-12-31T00:41:42.745Z,70.30
2018-12-31T00:44:11.193Z,70.00
2018-12-31T00:46:39.581Z,69.90
2018-12-31T00:49:08.000Z,70.40
2018-12-31T00:51:36.434Z,70.60
2018-12-31T00:54:04.847Z,70.30
2018-12-31T00:56:33.281Z,70.60
2018-12-31T00:59:01.688Z,70.60
2018-12-31T01:01:30.136Z,70.40
2018-12-31T01:03:58.537Z,70.10
2018-12-31T01:06:27.210Z,70.20
2018-12-31T01:08:55.621Z,70.40
2018-12-31T01:11:24.022Z,70.30
2018-12-31T01:13:52.450Z,70.60
2018-12-31T01:16:20.858Z,70.50
2018-12-31T01:18:49.305Z,70.70
2018-12-31T01:21:17.700Z,71.10
2018-12-31T01:23:46.128Z,71.10
2018-12-31T01:26:14.542Z,71.40
2018-12-31T01:28:42.970Z,71.50
2018-12-31T01:31:11.373Z,71.50
2018-12-31T01:33:39.788Z,71.40
2018-12-31T01:36:08.491Z,71.60
2018-12-31T01:38:37.177Z,72.20
2018-12-31T01:41:05.602Z,71.80
2018-12-31T01:43:33.997Z,72.30
2018-12-31T01:46:02.443Z,72.50
2018-12-31T01:48:30.829Z,72.70
2018-12-31T01:50:59.309Z,73.40
2018-12-31T01:53:27.772Z,73.60
2018-12-31T01:55:56.170Z,73.50
2018-12-31T01:58:24.612Z,73.60
2018-12-31T02:00:53.069Z,73.50
2018-12-31T02:03:21.462Z,74.10
2018-12-31T02:05:49.869Z,74.70
2018-12-31T02:08:18.325Z,74.80
2018-12-31T02:10:46.753Z,74.80
2018-12-31T02:13:15.217Z,75.00
2018-12-31T02:15:43.664Z,75.30
2018-12-31T02:18:12.096Z,75.40
2018-12-31T02:20:40.497Z,75.20
2018-12-31T02:23:09.249Z,75.10
2018-12-31T02:25:37.666Z,75.40
2018-12-31T02:28:06.066Z,75.50
2018-12-31T02:30:34.588Z,75.20
2018-12-31T02:33:03.026Z,75.60
2018-12-31T02:35:31.462Z,75.90
2018-12-31T02:37:59.861Z,76.10
2018-12-31T02:40:28.294Z,76.20
2018-12-31T02:42:56.696Z,76.00
2018-12-31T02:45:25.129Z,75.70
2018-12-31T02:47:53.529Z,76.20
2018-12-31T02:50:21.975Z,76.20
2018-12-31T02:52:50.374Z,76.00
2018-12-31T02:55:18.798Z,75.30
2018-12-31T02:57:47.241Z,75.80
2018-12-31T03:00:15.708Z,75.80
2018-12-31T03:02:44.113Z,76.00
2018-12-31T03:05:12.513Z,76.30
2018-12-31T03:07:40.918Z,75.80
2018-12-31T03:10:09.370Z,75.30
2018-12-31T03:12:37.776Z,75.10
2018-12-31T03:15:06.664Z,75.30
2018-12-31T03:17:35.068Z,75.50
2018-12-31T03:20:03.531Z,75.50
2018-12-31T03:22:31.948Z,75.40
2018-12-31T03:25:00.340Z,75.10
2018-12-31T03:27:28.748Z,75.20
2018-12-31T03:29:57.189Z,75.30
2018-12-31T03:32:25.629Z,75.60
2018-12-31T03:34:54.104Z,75.30
2018-12-31T03:37:22.503Z,75.60
2018-12-31T03:39:51.205Z,75.60
2018-12-31T03:42:19.615Z,75.10
2018-12-31T03:44:48.360Z,74.20
2018-12-31T03:47:16.769Z,73.60
2018-12-31T03:49:45.171Z,73.70
2018-12-31T03:52:13.577Z,73.70
2018-12-31T03:54:41.983Z,74.00
2018-12-31T03:57:10.408Z,73.80
2018-12-31T03:59:39.146Z,73.90
2018-12-31T04:02:07.566Z,74.10
2018-12-31T04:04:36.017Z,74.30
2018-12-31T04:07:04.507Z,73.80
2018-12-31T04:09:34.964Z,73.70
2018-12-31T04:12:03.595Z,73.90
2018-12-31T04:14:31.994Z,73.60
2018-12-31T04:17:00.419Z,74.10
2018-12-31T04:19:28.817Z,74.50
2018-12-31T04:21:57.234Z,74.30
2018-12-31T04:24:25.629Z,74.40
2018-12-31T04:26:54.061Z,74.00
2018-12-31T04:29:22.873Z,74.30
2018-12-31T04:31:51.257Z,74.20
2018-12-31T04:34:19.670Z,73.90
2018-12-31T04:36:48.075Z,74.20
2018-12-31T04:39:17.026Z,74.70
2018-12-31T04:41:45.425Z,74.40
2018-12-31T04:44:13.850Z,74.60
2018-12-31T04:46:42.247Z,74.70
2018-12-31T04:49:10.670Z,74.80
2018-12-31T04:51:39.068Z,74.80
2018-12-31T04:54:07.504Z,75.60
2018-12-31T04:56:35.884Z,76.30
2018-12-31T04:59:04.307Z,76.50
2018-12-31T05:01:32.704Z,76.10
2018-12-31T05:04:01.109Z,76.00
2018-12-31T05:06:29.493Z,75.90
2018-12-31T05:08:58.005Z,75.80
2018-12-31T05:11:26.429Z,75.80
2018-12-31T05:13:54.898Z,76.10
2018-12-31T05:16:23.318Z,76.10
2018-12-31T05:18:51.723Z,76.20
2018-12-31T05:21:20.162Z,75.90
2018-12-31T05:23:48.570Z,76.30
2018-12-31T05:26:17.010Z,76.10
2018-12-31T05:28:45.729Z,75.70
2018-12-31T05:31:14.159Z,75.60
2018-12-31T05:33:42.602Z,76.10
2018-12-31T05:36:11.021Z,75.40
2018-12-31T05:38:39.436Z,75.50
2018-12-31T05:41:07.845Z,74.90
2018-12-31T05:43:36.285Z,75.50
2018-12-31T05:46:04.693Z,76.20
2018-12-31T05:48:33.180Z,76.90
2018-12-31T05:51:01.601Z,77.50
2018-12-31T05:53:29.994Z,77.70
2018-12-31T05:55:58.413Z,78.50
2018-12-31T05:58:26.809Z,78.60
2018-12-31T06:00:55.515Z,79.00
2018-12-31T06:03:23.922Z,79.70
2018-12-31T06:05:52.357Z,79.70
2018-12-31T06:08:20.785Z,79.20
2018-12-31T06:10:49.221Z,80.40
2018-12-31T06:13:17.612Z,79.60
2018-12-31T06:15:46.017Z,79.50
2018-12-31T06:18:14.510Z,79.60
2018-12-31T06:20:42.905Z,79.50
2018-12-31T06:23:11.667Z,78.80
2018-12-31T06:25:40.096Z,78.80
2018-12-31T06:28:09.636Z,79.20
2018-12-31T06:30:38.042Z,78.80
2018-12-31T06:33:06.713Z,79.40
2018-12-31T06:35:35.164Z,79.10
2018-12-31T06:38:03.617Z,79.60
2018-12-31T06:40:32.485Z,79.90
2018-12-31T06:43:00.897Z,79.40
2018-12-31T06:45:29.321Z,79.60
2018-12-31T06:47:57.728Z,79.70
2018-12-31T06:50:26.140Z,80.00
2018-12-31T06:52:54.536Z,79.30
2018-12-31T06:55:22.938Z,79.30
2018-12-31T06:57:51.721Z,79.60
2018-12-31T07:00:20.159Z,79.70
2018-12-31T07:02:48.553Z,80.30
2018-12-31T07:05:16.978Z,79.80
2018-12-31T07:07:45.380Z,80.20
2018-12-31T07:10:13.792Z,80.50
2018-12-31T07:12:42.196Z,80.40
2018-12-31T07:15:10.626Z,81.10
2018-12-31T07:17:39.029Z,81.20
2018-12-31T07:20:07.953Z,81.30
2018-12-31T07:22:36.346Z,80.60
2018-12-31T07:25:05.149Z,81.10
2018-12-31T07:27:33.938Z,81.70
2018-12-31T07:30:02.345Z,81.50
2018-12-31T07:32:30.747Z,81.90
2018-12-31T07:34:59.133Z,82.60
2018-12-31T07:37:29.211Z,82.40
2018-12-31T07:39:57.629Z,82.80
2018-12-31T07:42:26.053Z,82.50
2018-12-31T07:44:54.458Z,81.80
2018-12-31T07:47:22.893Z,81.10
2018-12-31T07:49:51.300Z,81.00
2018-12-31T07:52:19.717Z,81.60
2018-12-31T07:54:48.111Z,81.50
2018-12-31T07:57:16.560Z,81.00
2018-12-31T07:59:44.981Z,80.40
2018-12-31T08:02:13.834Z,80.10
2018-12-31T08:04:42.317Z,80.10
2018-12-31T08:07:10.725Z,80.90
2018-12-31T08:09:39.227Z,81.40
2018-12-31T08:12:07.637Z,80.50
2018-12-31T08:14:36.019Z,80.60
2018-12-31T08:17:04.421Z,81.70
2018-12-31T08:19:32.817Z,80.60
2018-12-31T08:22:01.231Z,80.50
2018-12-31T08:24:29.625Z,80.40
2018-12-31T08:26:58.040Z,80.90
2018-12-31T08:29:26.461Z,80.90
2018-12-31T08:31:54.919Z,81.00
2018-12-31T08:34:23.345Z,81.00
2018-12-31T08:36:51.747Z,80.60
2018-12-31T08:39:20.178Z,80.80
2018-12-31T08:41:48.577Z,80.90
2018-12-31T08:44:16.978Z,80.70
2018-12-31T08:46:45.673Z,79.70
2018-12-31T08:49:14.081Z,79.90
2018-12-31T08:51:42.504Z,80.00
2018-12-31T08:54:10.939Z,80.60
2018-12-31T08:56:39.420Z,81.20
2018-12-31T08:59:07.841Z,81.90
2018-12-31T09:01:36.237Z,81.50
2018-12-31T09:04:04.730Z,82.10
2018-12-31T09:06:33.129Z,82.50
2018-12-31T09:09:01.540Z,83.30
2018-12-31T09:11:29.953Z,82.50
2018-12-31T09:13:58.369Z,83.50
2018-12-31T09:16:26.779Z,83.70
2018-12-31T09:18:55.189Z,84.50
2018-12-31T09:21:23.595Z,84.60
2018-12-31T09:23:52.021Z,85.00
2018-12-31T09:26:20.770Z,85.00
2018-12-31T09:28:49.213Z,85.10
2018-12-31T09:31:17.635Z,85.40
2018-12-31T09:33:46.066Z,85.60
2018-12-31T09:36:14.472Z,84.70
2018-12-31T09:38:43.177Z,85.30
2018-12-31T09:41:11.582Z,85.10
2018-12-31T09:43:40.004Z,85.40
2018-12-31T09:46:08.403Z,85.70
2018-12-31T09:48:36.808Z,85.40
2018-12-31T09:51:05.243Z,85.60
2018-12-31T09:53:33.652Z,85.40
2018-12-31T09:56:02.133Z,85.90
2018-12-31T09:58:30.547Z,86.60
2018-12-31T10:00:58.987Z,86.30
2018-12-31T10:03:27.380Z,85.70
2018-12-31T10:05:55.788Z,85.40
2018-12-31T10:08:24.243Z,85.80
2018-12-31T10:10:52.649Z,85.70
2018-12-31T10:13:21.461Z,85.80
2018-12-31T10:15:49.855Z,85.70
2018-12-31T10:18:18.253Z,85.50
2018-12-31T10:20:46.980Z,85.50
2018-12-31T10:23:15.394Z,85.40
2018-12-31T10:25:43.813Z,85.10
2018-12-31T10:28:12.257Z,85.30
2018-12-31T10:30:40.668Z,85.10
2018-12-31T10:33:09.483Z,85.40
2018-12-31T10:35:37.922Z,84.80
2018-12-31T10:38:06.420Z,85.50
2018-12-31T10:40:34.890Z,85.90
2018-12-31T10:43:03.277Z,85.90
2018-12-31T10:45:31.725Z,86.10
2018-12-31T10:48:00.153Z,85.10
2018-12-31T10:50:28.709Z,84.90
2018-12-31T10:52:57.100Z,85.50
2018-12-31T10:55:25.510Z,85.70
2018-12-31T10:57:53.971Z,85.20
2018-12-31T11:00:22.803Z,85.20
2018-12-31T11:02:51.197Z,84.30
2018-12-31T11:05:19.596Z,84.70
2018-12-31T11:07:47.995Z,84.80
2018-12-31T11:10:16.424Z,84.90
2018-12-31T11:12:44.821Z,85.10
2018-12-31T11:15:13.255Z,85.50
2018-12-31T11:17:41.656Z,85.00
2018-12-31T11:20:10.064Z,85.60
2018-12-31T11:22:38.717Z,85.90
2018-12-31T11:25:07.235Z,86.00
2018-12-31T11:27:35.622Z,85.60
2018-12-31T11:30:04.152Z,85.80
2018-12-31T11:32:32.561Z,85.60
2018-12-31T11:35:00.952Z,86.00
2018-12-31T11:37:34.565Z,86.10
2018-12-31T11:39:59.753Z,86.30
2018-12-31T11:42:28.566Z,86.00
2018-12-31T11:44:57.311Z,86.60
2018-12-31T11:47:25.713Z,86.80
2018-12-31T11:49:54.114Z,86.90
2018-12-31T11:52:22.524Z,87.60
2018-12-31T11:54:50.943Z,87.00
2018-12-31T11:57:19.325Z,87.50
2018-12-31T11:59:47.733Z,87.80
2018-12-31T12:02:23.363Z,87.70
2018-12-31T12:04:46.757Z,88.20
2018-12-31T12:07:15.643Z,88.10
2018-12-31T12:09:44.024Z,87.50
2018-12-31T12:12:12.497Z,87.50
2018-12-31T12:14:40.917Z,87.00
2018-12-31T12:17:09.419Z,87.60
2018-12-31T12:19:37.818Z,87.20
2018-12-31T12:22:06.256Z,87.80
2018-12-31T12:24:34.653Z,87.10
2018-12-31T12:27:03.365Z,86.20
2018-12-31T12:29:31.790Z,86.50
2018-12-31T12:32:00.207Z,86.90
2018-12-31T12:34:28.618Z,87.10
2018-12-31T12:36:57.079Z,87.10
2018-12-31T12:39:25.957Z,86.80
2018-12-31T12:41:54.373Z,86.70
2018-12-31T12:44:22.857Z,87.20
2018-12-31T12:46:51.353Z,87.60
2018-12-31T12:49:19.839Z,87.60
2018-12-31T12:51:48.659Z,86.90
2018-12-31T12:54:17.056Z,86.50
2018-12-31T12:56:45.590Z,86.50
2018-12-31T12:59:14.029Z,86.80
2018-12-31T13:01:43.499Z,86.70
2018-12-31T13:04:11.890Z,86.70
2018-12-31T13:06:40.430Z,86.90
2018-12-31T13:09:08.829Z,87.20
2018-12-31T13:11:37.382Z,87.10
2018-12-31T13:14:05.776Z,86.90
2018-12-31T13:16:34.226Z,86.80
2018-12-31T13:19:02.623Z,86.50
2018-12-31T13:21:31.070Z,87.00
2018-12-31T13:23:59.534Z,86.70
2018-12-31T13:26:28.370Z,86.60
2018-12-31T13:28:56.764Z,87.20
2018-12-31T13:31:25.237Z,87.20
2018-12-31T13:33:53.644Z,87.50
2018-12-31T13:36:22.172Z,87.10
2018-12-31T13:38:50.558Z,86.80
2018-12-31T13:41:19.020Z,87.10
2018-12-31T13:43:47.511Z,87.30
2018-12-31T13:46:15.942Z,86.90
2018-12-31T13:48:44.374Z,87.10
2018-12-31T13:51:12.796Z,87.30
2018-12-31T13:53:41.198Z,87.50
2018-12-31T13:56:10.016Z,88.20
2018-12-31T13:58:38.416Z,88.30
2018-12-31T14:01:07.745Z,88.10
2018-12-31T14:03:36.186Z,88.10
2018-12-31T14:06:04.571Z,88.30
2018-12-31T14:08:33.359Z,88.50
2018-12-31T14:11:01.864Z,88.50
2018-12-31T14:13:30.363Z,88.80
2018-12-31T14:15:58.886Z,88.70
2018-12-31T14:18:27.308Z,88.50
2018-12-31T14:20:56.105Z,87.60
2018-12-31T14:23:24.619Z,88.20
2018-12-31T14:25:53.045Z,88.20
2018-12-31T14:28:21.504Z,88.80
2018-12-31T14:30:49.919Z,88.30
2018-12-31T14:33:18.621Z,87.60
2018-12-31T14:35:47.065Z,87.90
2018-12-31T14:38:15.498Z,88.00
2018-12-31T14:40:43.928Z,87.50
2018-12-31T14:43:12.361Z,87.30
2018-12-31T14:45:40.762Z,87.10
2018-12-31T14:48:09.189Z,86.80
2018-12-31T14:50:37.669Z,87.00
2018-12-31T14:53:06.147Z,86.90
2018-12-31T14:55:34.549Z,87.10
2018-12-31T14:58:03.041Z,86.50
2018-12-31T15:00:31.483Z,86.80
2018-12-31T15:03:00.042Z,86.60
2018-12-31T15:05:28.481Z,86.90
2018-12-31T15:07:56.900Z,86.80
2018-12-31T15:10:25.297Z,86.70
2018-12-31T15:12:53.912Z,86.70
2018-12-31T15:15:22.630Z,87.00
2018-12-31T15:17:51.164Z,87.10
2018-12-31T15:20:19.561Z,86.70
2018-12-31T15:22:48.009Z,86.30
2018-12-31T15:25:16.819Z,86.40
2018-12-31T15:27:45.269Z,86.10
2018-12-31T15:30:13.742Z,86.50
2018-12-31T15:32:42.162Z,87.00
2018-12-31T15:35:10.887Z,87.10
2018-12-31T15:37:39.814Z,87.40
2018-12-31T15:40:08.902Z,86.70
2018-12-31T15:42:37.372Z,87.00
2018-12-31T15:45:06.676Z,87.00
2018-12-31T15:47:35.182Z,86.40
2018-12-31T15:50:04.062Z,86.10
2018-12-31T15:52:32.486Z,86.00
2018-12-31T15:55:00.893Z,85.70
2018-12-31T15:57:29.300Z,86.20
2018-12-31T15:59:57.748Z,86.80
2018-12-31T16:02:26.246Z,87.00
2018-12-31T16:04:54.663Z,86.70
2018-12-31T16:07:23.085Z,86.60
2018-12-31T16:09:51.534Z,86.20
2018-12-31T16:12:19.968Z,86.90
2018-12-31T16:14:48.406Z,87.20
2018-12-31T16:17:16.907Z,87.50
2018-12-31T16:19:45.348Z,88.00
2018-12-31T16:22:13.809Z,88.50
2018-12-31T16:24:42.590Z,87.10
2018-12-31T16:27:10.997Z,87.30
2018-12-31T16:29:39.926Z,87.00
2018-12-31T16:32:08.417Z,87.30
2018-12-31T16:34:36.849Z,87.30
2018-12-31T16:37:05.249Z,87.40
2018-12-31T16:39:33.748Z,88.10
2018-12-31T16:42:02.240Z,87.80
2018-12-31T16:44:30.722Z,88.10
2018-12-31T16:46:59.129Z,87.30
2018-12-31T16:49:27.594Z,87.80
2018-12-31T16:52:02.495Z,87.70
2018-12-31T16:54:26.170Z,87.50
2018-12-31T16:56:54.920Z,87.50
2018-12-31T16:59:23.409Z,88.00
2018-12-31T17:01:51.886Z,88.90
2018-12-31T17:04:20.403Z,88.20
2018-12-31T17:06:48.862Z,87.70
2018-12-31T17:09:17.394Z,86.80
2018-12-31T17:11:45.809Z,87.50
2018-12-31T17:14:14.250Z,86.90
2018-12-31T17:16:42.662Z,86.40
2018-12-31T17:19:11.089Z,86.50
2018-12-31T17:21:39.497Z,86.60
2018-12-31T17:24:07.922Z,86.70
2018-12-31T17:26:36.366Z,86.20
2018-12-31T17:29:04.852Z,86.60
2018-12-31T17:31:33.337Z,86.80
2018-12-31T17:34:01.782Z,87.00
2018-12-31T17:36:30.234Z,86.40
2018-12-31T17:38:59.654Z,86.50
2018-12-31T17:41:28.087Z,87.20
2018-12-31T17:43:56.895Z,87.10
2018-12-31T17:46:25.301Z,86.60
2018-12-31T17:48:54.453Z,86.10
2018-12-31T17:51:22.853Z,85.80
2018-12-31T17:53:51.285Z,85.30
2018-12-31T17:56:19.690Z,85.10
2018-12-31T17:58:48.132Z,85.10
2018-12-31T18:01:17.168Z,84.90
2018-12-31T18:03:45.605Z,84.30
2018-12-31T18:06:17.876Z,84.20
2018-12-31T18:08:49.410Z,84.60
2018-12-31T18:11:19.050Z,85.60
2018-12-31T18:13:51.637Z,84.50
2018-12-31T18:16:21.838Z,84.30
2018-12-31T18:18:51.794Z,84.40
2018-12-31T18:21:24.434Z,84.70
2018-12-31T18:23:56.335Z,85.20
2018-12-31T18:26:25.047Z,85.20
2018-12-31T18:28:53.552Z,84.80
2018-12-31T18:31:21.985Z,83.90
2018-12-31T18:33:50.439Z,83.10
2018-12-31T18:36:19.392Z,82.90
2018-12-31T18:38:47.896Z,83.30
2018-12-31T18:41:16.305Z,83.40
2018-12-31T18:43:44.701Z,83.00
2018-12-31T18:46:13.128Z,83.50
2018-12-31T18:48:41.628Z,83.60
2018-12-31T18:51:10.605Z,84.30
2018-12-31T18:53:39.731Z,83.80
2018-12-31T18:56:08.287Z,82.90
2018-12-31T18:58:36.696Z,82.70
2018-12-31T19:01:05.100Z,82.70
2018-12-31T19:03:33.520Z,82.90
2018-12-31T19:06:01.985Z,81.90
2018-12-31T19:08:30.385Z,81.60
2018-12-31T19:10:58.840Z,81.50
2018-12-31T19:13:27.240Z,82.50
2018-12-31T19:15:56.034Z,83.30
2018-12-31T19:18:24.478Z,83.00
2018-12-31T19:20:52.909Z,83.40
2018-12-31T19:23:21.312Z,83.80
2018-12-31T19:25:49.743Z,83.70
2018-12-31T19:28:18.149Z,83.10
2018-12-31T19:30:46.603Z,82.80
2018-12-31T19:33:15.097Z,83.00
2018-12-31T19:35:43.503Z,83.00
2018-12-31T19:38:11.950Z,82.60
2018-12-31T19:40:40.386Z,83.10
2018-12-31T19:43:08.834Z,83.00
2018-12-31T19:45:37.604Z,82.80
2018-12-31T19:48:06.008Z,82.60
2018-12-31T19:50:34.421Z,82.20
2018-12-31T19:53:02.830Z,82.70
2018-12-31T19:55:31.625Z,83.20
2018-12-31T19:58:00.027Z,83.30
2018-12-31T20:00:28.464Z,83.80
2018-12-31T20:02:56.906Z,83.50
2018-12-31T20:05:25.717Z,83.30
2018-12-31T20:07:54.178Z,82.60
2018-12-31T20:10:23.577Z,82.10
2018-12-31T20:12:52.176Z,82.50
2018-12-31T20:15:20.597Z,82.90
2018-12-31T20:17:49.466Z,82.50
2018-12-31T20:20:18.130Z,82.80
2018-12-31T20:22:46.644Z,82.40
2018-12-31T20:25:15.076Z,82.90
2018-12-31T20:27:43.569Z,82.80
2018-12-31T20:30:12.097Z,82.70
2018-12-31T20:32:40.582Z,82.60
2018-12-31T20:35:08.984Z,82.80
2018-12-31T20:37:37.417Z,82.50
2018-12-31T20:40:06.718Z,81.70
2018-12-31T20:42:35.206Z,82.00
2018-12-31T20:45:03.701Z,81.70
2018-12-31T20:47:32.101Z,81.70
2018-12-31T20:50:00.508Z,82.00
2018-12-31T20:52:29.237Z,82.20
2018-12-31T20:54:57.644Z,81.70
2018-12-31T20:57:26.061Z,82.20
2018-12-31T20:59:54.541Z,82.00
2018-12-31T21:02:23.067Z,81.70
2018-12-31T21:04:51.845Z,82.20
2018-12-31T21:07:20.322Z,82.10
2018-12-31T21:09:48.756Z,81.50
2018-12-31T21:12:17.176Z,81.30
2018-12-31T21:14:45.573Z,81.50
2018-12-31T21:17:13.991Z,81.10
2018-12-31T21:19:42.473Z,80.70
2018-12-31T21:22:10.897Z,81.30
2018-12-31T21:24:39.554Z,81.80
2018-12-31T21:27:07.988Z,81.80
2018-12-31T21:29:36.736Z,81.80
2018-12-31T21:32:05.170Z,81.70
2018-12-31T21:34:33.609Z,81.50
2018-12-31T21:37:02.009Z,80.60
2018-12-31T21:39:30.450Z,81.00
2018-12-31T21:41:59.152Z,81.10
2018-12-31T21:44:27.979Z,81.20
2018-12-31T21:46:56.381Z,80.90
2018-12-31T21:49:24.889Z,81.00
2018-12-31T21:51:53.325Z,81.20
2018-12-31T21:54:21.804Z,79.90
2018-12-31T21:56:50.284Z,80.10
2018-12-31T21:59:18.702Z,79.90
2018-12-31T22:01:47.109Z,81.10
2018-12-31T22:04:15.552Z,81.40
2018-12-31T22:06:44.006Z,82.00
2018-12-31T22:09:12.652Z,82.30
2018-12-31T22:11:42.289Z,82.00
2018-12-31T22:14:10.688Z,82.30
2018-12-31T22:16:39.125Z,81.80
2018-12-31T22:19:07.549Z,81.30
2018-12-31T22:21:36.334Z,81.70
2018-12-31T22:24:04.794Z,82.10
2018-12-31T22:26:33.211Z,82.20
2018-12-31T22:29:01.708Z,82.00
2018-12-31T22:31:30.135Z,81.40
2018-12-31T22:33:58.569Z,81.10
2018-12-31T22:36:46.589Z,81.30
2018-12-31T22:39:15.010Z,81.30
2018-12-31T22:41:43.450Z,81.70
2018-12-31T22:44:11.870Z,81.60
2018-12-31T22:46:40.277Z,81.50
2018-12-31T22:49:08.695Z,81.30
2018-12-31T22:51:37.104Z,81.10
2018-12-31T22:54:05.520Z,80.00
2018-12-31T22:56:33.974Z,80.30
2018-12-31T22:59:02.618Z,80.20
2018-12-31T23:01:31.714Z,80.20
2018-12-31T23:04:00.188Z,80.60
2018-12-31T23:06:28.611Z,79.80
2018-12-31T23:08:57.066Z,79.50
2018-12-31T23:11:25.501Z,79.40
2018-12-31T23:13:54.667Z,80.30
2018-12-31T23:16:23.144Z,80.00
2018-12-31T23:18:51.548Z,79.30
2018-12-31T23:21:20.019Z,80.00
2018-12-31T23:23:48.518Z,80.10
2018-12-31T23:26:16.974Z,79.50
2018-12-31T23:28:52.314Z,79.60
2018-12-31T23:31:15.815Z,79.60
2018-12-31T23:33:44.221Z,78.80
2018-12-31T23:36:12.649Z,78.90
2018-12-31T23:38:41.086Z,78.10
2018-12-31T23:41:09.751Z,78.80
2018-12-31T23:43:38.199Z,79.00
2018-12-31T23:46:06.723Z,78.40
2018-12-31T23:48:35.197Z,78.50
2018-12-31T23:51:03.664Z,78.30
2018-12-31T23:53:32.483Z,77.80
2018-12-31T23:56:00.945Z,78.20
2018-12-31T23:58:29.704Z,77.70
